sensor_id;sensor_type;location;lat;lon;timestamp;pressure;altitude;pressure_sealevel;temperature;humidity
62926;BME280;55732;52.248;-0.844;2022-09-12T00:00:26;100550.27;;;16.59;76.12
62926;BME280;55732;52.248;-0.844;2022-09-12T00:02:53;100547.98;;;16.57;76.18
62926;BME280;55732;52.248;-0.844;2022-09-12T00:05:19;100547.53;;;16.54;76.42
62926;BME280;55732;52.248;-0.844;2022-09-12T00:07:45;100544.09;;;16.50;76.40
62926;BME280;55732;52.248;-0.844;2022-09-12T00:10:11;100545.97;;;16.47;76.50
62926;BME280;55732;52.248;-0.844;2022-09-12T00:12:36;100549.61;;;16.43;76.68
62926;BME280;55732;52.248;-0.844;2022-09-12T00:15:02;100548.90;;;16.43;76.87
62926;BME280;55732;52.248;-0.844;2022-09-12T00:17:27;100546.92;;;16.44;76.86
62926;BME280;55732;52.248;-0.844;2022-09-12T00:19:53;100539.11;;;16.37;76.99
62926;BME280;55732;52.248;-0.844;2022-09-12T00:22:19;100543.70;;;16.39;77.17
62926;BME280;55732;52.248;-0.844;2022-09-12T00:24:45;100537.88;;;16.37;77.30
62926;BME280;55732;52.248;-0.844;2022-09-12T00:27:10;100537.91;;;16.36;77.37
62926;BME280;55732;52.248;-0.844;2022-09-12T00:29:36;100538.98;;;16.35;77.52
62926;BME280;55732;52.248;-0.844;2022-09-12T00:32:01;100537.05;;;16.35;77.40
62926;BME280;55732;52.248;-0.844;2022-09-12T00:34:27;100535.28;;;16.34;77.48
62926;BME280;55732;52.248;-0.844;2022-09-12T00:36:52;100530.34;;;16.33;77.42
62926;BME280;55732;52.248;-0.844;2022-09-12T00:39:17;100537.64;;;16.32;77.52
62926;BME280;55732;52.248;-0.844;2022-09-12T00:41:44;100535.20;;;16.30;77.86
62926;BME280;55732;52.248;-0.844;2022-09-12T00:46:51;100531.39;;;16.33;77.90
62926;BME280;55732;52.248;-0.844;2022-09-12T00:49:27;100525.54;;;16.33;77.91
62926;BME280;55732;52.248;-0.844;2022-09-12T00:54:24;100522.57;;;16.31;78.02
62926;BME280;55732;52.248;-0.844;2022-09-12T00:56:53;100519.66;;;16.28;78.20
62926;BME280;55732;52.248;-0.844;2022-09-12T00:59:25;100517.16;;;16.28;78.24
62926;BME280;55732;52.248;-0.844;2022-09-12T01:01:52;100519.09;;;16.28;78.30
62926;BME280;55732;52.248;-0.844;2022-09-12T01:04:20;100518.79;;;16.26;78.15
62926;BME280;55732;52.248;-0.844;2022-09-12T01:06:48;100516.34;;;16.25;78.21
62926;BME280;55732;52.248;-0.844;2022-09-12T01:09:19;100512.84;;;16.22;78.57
62926;BME280;55732;52.248;-0.844;2022-09-12T01:11:46;100511.27;;;16.21;78.66
62926;BME280;55732;52.248;-0.844;2022-09-12T01:14:14;100513.44;;;16.19;78.64
62926;BME280;55732;52.248;-0.844;2022-09-12T01:16:39;100506.91;;;16.17;78.49
62926;BME280;55732;52.248;-0.844;2022-09-12T01:22:18;100506.18;;;16.12;78.69
62926;BME280;55732;52.248;-0.844;2022-09-12T01:38:45;100484.33;;;16.12;79.01
62926;BME280;55732;52.248;-0.844;2022-09-12T01:43:56;100480.27;;;16.10;79.10
62926;BME280;55732;52.248;-0.844;2022-09-12T01:49:02;100469.70;;;16.07;79.09
62926;BME280;55732;52.248;-0.844;2022-09-12T01:51:38;100472.06;;;16.05;79.11
62926;BME280;55732;52.248;-0.844;2022-09-12T01:54:09;100472.45;;;16.05;79.37
62926;BME280;55732;52.248;-0.844;2022-09-12T01:56:39;100472.83;;;16.04;79.34
62926;BME280;55732;52.248;-0.844;2022-09-12T01:59:23;100472.69;;;16.02;79.37
62926;BME280;55732;52.248;-0.844;2022-09-12T02:02:08;100469.50;;;16.01;79.53
62926;BME280;55732;52.248;-0.844;2022-09-12T02:04:41;100465.09;;;16.01;79.57
62926;BME280;55732;52.248;-0.844;2022-09-12T02:07:19;100463.52;;;15.99;79.48
62926;BME280;55732;52.248;-0.844;2022-09-12T02:09:53;100464.96;;;15.98;79.53
62926;BME280;55732;52.248;-0.844;2022-09-12T02:12:25;100461.41;;;15.98;79.52
62926;BME280;55732;52.248;-0.844;2022-09-12T02:14:59;100460.40;;;15.96;79.62
62926;BME280;55732;52.248;-0.844;2022-09-12T02:17:27;100458.10;;;15.95;79.69
62926;BME280;55732;52.248;-0.844;2022-09-12T02:19:57;100458.11;;;15.95;79.68
62926;BME280;55732;52.248;-0.844;2022-09-12T02:22:26;100456.07;;;15.92;79.84
62926;BME280;55732;52.248;-0.844;2022-09-12T02:24:55;100457.38;;;15.90;79.77
62926;BME280;55732;52.248;-0.844;2022-09-12T02:27:26;100454.13;;;15.84;79.60
62926;BME280;55732;52.248;-0.844;2022-09-12T02:29:54;100452.65;;;15.79;79.75
62926;BME280;55732;52.248;-0.844;2022-09-12T02:32:29;100450.92;;;15.78;79.90
62926;BME280;55732;52.248;-0.844;2022-09-12T02:35:18;100445.63;;;15.77;80.12
62926;BME280;55732;52.248;-0.844;2022-09-12T02:40:17;100436.89;;;15.78;80.11
62926;BME280;55732;52.248;-0.844;2022-09-12T02:42:43;100439.48;;;15.80;80.01
62926;BME280;55732;52.248;-0.844;2022-09-12T02:45:09;100441.98;;;15.80;80.07
62926;BME280;55732;52.248;-0.844;2022-09-12T02:47:40;100439.70;;;15.79;80.18
62926;BME280;55732;52.248;-0.844;2022-09-12T02:50:08;100438.48;;;15.78;80.24
62926;BME280;55732;52.248;-0.844;2022-09-12T02:52:34;100434.25;;;15.77;80.05
62926;BME280;55732;52.248;-0.844;2022-09-12T02:55:04;100434.83;;;15.75;80.06
62926;BME280;55732;52.248;-0.844;2022-09-12T02:57:30;100430.42;;;15.74;80.14
62926;BME280;55732;52.248;-0.844;2022-09-12T02:59:58;100428.95;;;15.75;80.29
62926;BME280;55732;52.248;-0.844;2022-09-12T03:02:53;100433.36;;;15.77;80.19
62926;BME280;55732;52.248;-0.844;2022-09-12T03:05:34;100434.03;;;15.78;80.26
62926;BME280;55732;52.248;-0.844;2022-09-12T03:08:15;100435.27;;;15.78;80.16
62926;BME280;55732;52.248;-0.844;2022-09-12T03:16:22;100434.52;;;15.80;80.34
62926;BME280;55732;52.248;-0.844;2022-09-12T03:25:16;100420.71;;;15.79;80.56
62926;BME280;55732;52.248;-0.844;2022-09-12T03:28:25;100422.77;;;15.81;80.72
62926;BME280;55732;52.248;-0.844;2022-09-12T03:30:45;100425.57;;;15.83;80.82
62926;BME280;55732;52.248;-0.844;2022-09-12T03:33:15;100420.58;;;15.83;80.96
62926;BME280;55732;52.248;-0.844;2022-09-12T03:35:41;100419.67;;;15.84;81.09
62926;BME280;55732;52.248;-0.844;2022-09-12T03:38:07;100420.87;;;15.86;81.20
62926;BME280;55732;52.248;-0.844;2022-09-12T03:40:34;100419.73;;;15.89;81.23
62926;BME280;55732;52.248;-0.844;2022-09-12T03:43:03;100416.88;;;15.91;80.88
62926;BME280;55732;52.248;-0.844;2022-09-12T03:45:28;100414.16;;;15.92;80.92
62926;BME280;55732;52.248;-0.844;2022-09-12T03:47:53;100414.44;;;15.94;80.85
62926;BME280;55732;52.248;-0.844;2022-09-12T03:50:21;100413.68;;;15.97;80.79
62926;BME280;55732;52.248;-0.844;2022-09-12T03:52:47;100411.16;;;15.98;80.77
62926;BME280;55732;52.248;-0.844;2022-09-12T03:55:12;100414.48;;;16.00;80.83
62926;BME280;55732;52.248;-0.844;2022-09-12T03:57:38;100413.63;;;15.98;80.72
62926;BME280;55732;52.248;-0.844;2022-09-12T04:00:06;100406.60;;;15.96;80.74
62926;BME280;55732;52.248;-0.844;2022-09-12T04:02:35;100408.27;;;16.00;80.79
62926;BME280;55732;52.248;-0.844;2022-09-12T04:05:04;100405.92;;;16.01;80.67
62926;BME280;55732;52.248;-0.844;2022-09-12T04:07:30;100402.59;;;16.00;80.61
62926;BME280;55732;52.248;-0.844;2022-09-12T04:09:55;100399.24;;;15.98;80.79
62926;BME280;55732;52.248;-0.844;2022-09-12T04:12:21;100395.88;;;15.98;80.81
62926;BME280;55732;52.248;-0.844;2022-09-12T04:14:49;100395.50;;;15.99;80.98
62926;BME280;55732;52.248;-0.844;2022-09-12T04:17:15;100399.36;;;16.01;80.91
62926;BME280;55732;52.248;-0.844;2022-09-12T04:19:40;100396.83;;;16.03;81.04
62926;BME280;55732;52.248;-0.844;2022-09-12T04:22:06;100391.25;;;16.06;80.96
62926;BME280;55732;52.248;-0.844;2022-09-12T04:24:31;100392.08;;;16.07;80.76
62926;BME280;55732;52.248;-0.844;2022-09-12T04:26:57;100390.87;;;16.05;80.84
62926;BME280;55732;52.248;-0.844;2022-09-12T04:29:22;100387.41;;;16.03;80.83
62926;BME280;55732;52.248;-0.844;2022-09-12T04:31:49;100385.70;;;16.00;80.91
62926;BME280;55732;52.248;-0.844;2022-09-12T04:34:14;100382.07;;;15.96;80.98
62926;BME280;55732;52.248;-0.844;2022-09-12T04:36:40;100377.09;;;15.91;80.99
62926;BME280;55732;52.248;-0.844;2022-09-12T04:39:05;100375.21;;;15.87;81.17
62926;BME280;55732;52.248;-0.844;2022-09-12T04:41:37;100367.58;;;15.87;81.60
62926;BME280;55732;52.248;-0.844;2022-09-12T04:44:09;100369.30;;;15.89;81.64
62926;BME280;55732;52.248;-0.844;2022-09-12T04:46:38;100366.98;;;15.91;81.60
62926;BME280;55732;52.248;-0.844;2022-09-12T04:49:04;100368.21;;;15.91;81.63
62926;BME280;55732;52.248;-0.844;2022-09-12T04:51:31;100366.58;;;15.92;81.86
62926;BME280;55732;52.248;-0.844;2022-09-12T04:54:14;100366.35;;;15.93;81.69
62926;BME280;55732;52.248;-0.844;2022-09-12T04:56:42;100362.05;;;15.94;81.65
62926;BME280;55732;52.248;-0.844;2022-09-12T04:59:08;100360.98;;;15.95;81.87
62926;BME280;55732;52.248;-0.844;2022-09-12T05:01:34;100359.72;;;15.95;81.88
62926;BME280;55732;52.248;-0.844;2022-09-12T05:04:00;100355.62;;;15.96;81.78
62926;BME280;55732;52.248;-0.844;2022-09-12T05:06:34;100356.00;;;15.95;81.85
62926;BME280;55732;52.248;-0.844;2022-09-12T05:09:01;100352.65;;;15.94;81.82
62926;BME280;55732;52.248;-0.844;2022-09-12T05:11:29;100357.44;;;15.95;81.82
62926;BME280;55732;52.248;-0.844;2022-09-12T05:13:56;100351.80;;;15.93;81.83
62926;BME280;55732;52.248;-0.844;2022-09-12T05:16:22;100355.20;;;15.93;81.70
62926;BME280;55732;52.248;-0.844;2022-09-12T05:18:48;100355.02;;;15.93;81.91
62926;BME280;55732;52.248;-0.844;2022-09-12T05:21:17;100351.26;;;15.94;81.85
62926;BME280;55732;52.248;-0.844;2022-09-12T05:23:44;100349.46;;;15.94;81.87
62926;BME280;55732;52.248;-0.844;2022-09-12T05:26:12;100349.76;;;15.96;82.15
62926;BME280;55732;52.248;-0.844;2022-09-12T05:28:38;100353.03;;;16.00;82.27
62926;BME280;55732;52.248;-0.844;2022-09-12T05:31:07;100356.83;;;16.04;82.32
62926;BME280;55732;52.248;-0.844;2022-09-12T05:33:34;100357.09;;;16.07;82.23
62926;BME280;55732;52.248;-0.844;2022-09-12T05:36:01;100359.86;;;16.10;82.36
62926;BME280;55732;52.248;-0.844;2022-09-12T05:38:27;100361.78;;;16.12;82.45
62926;BME280;55732;52.248;-0.844;2022-09-12T05:41:02;100365.44;;;16.14;82.23
62926;BME280;55732;52.248;-0.844;2022-09-12T05:43:28;100359.89;;;16.15;82.32
62926;BME280;55732;52.248;-0.844;2022-09-12T05:45:59;100360.48;;;16.19;82.41
62926;BME280;55732;52.248;-0.844;2022-09-12T05:48:25;100358.61;;;16.23;82.47
62926;BME280;55732;52.248;-0.844;2022-09-12T05:50:50;100360.73;;;16.30;82.45
62926;BME280;55732;52.248;-0.844;2022-09-12T05:53:16;100354.85;;;16.37;82.36
62926;BME280;55732;52.248;-0.844;2022-09-12T05:55:41;100356.02;;;16.45;82.20
62926;BME280;55732;52.248;-0.844;2022-09-12T05:58:06;100353.08;;;16.49;81.99
62926;BME280;55732;52.248;-0.844;2022-09-12T06:00:32;100351.48;;;16.55;82.07
62926;BME280;55732;52.248;-0.844;2022-09-12T06:02:57;100353.87;;;16.58;82.04
62926;BME280;55732;52.248;-0.844;2022-09-12T06:05:22;100352.51;;;16.63;82.08
62926;BME280;55732;52.248;-0.844;2022-09-12T06:07:49;100358.75;;;16.68;81.83
62926;BME280;55732;52.248;-0.844;2022-09-12T06:10:14;100360.44;;;16.72;82.07
62926;BME280;55732;52.248;-0.844;2022-09-12T06:12:40;100364.55;;;16.76;81.73
62926;BME280;55732;52.248;-0.844;2022-09-12T06:15:06;100366.06;;;16.79;81.66
62926;BME280;55732;52.248;-0.844;2022-09-12T06:17:32;100371.33;;;16.82;81.63
62926;BME280;55732;52.248;-0.844;2022-09-12T06:19:57;100375.02;;;16.84;81.55
62926;BME280;55732;52.248;-0.844;2022-09-12T06:22:22;100375.50;;;16.85;81.61
62926;BME280;55732;52.248;-0.844;2022-09-12T06:24:48;100373.51;;;16.86;81.43
62926;BME280;55732;52.248;-0.844;2022-09-12T06:27:13;100378.89;;;16.90;81.63
62926;BME280;55732;52.248;-0.844;2022-09-12T06:29:39;100380.02;;;16.94;81.43
62926;BME280;55732;52.248;-0.844;2022-09-12T06:32:05;100381.08;;;17.00;81.61
62926;BME280;55732;52.248;-0.844;2022-09-12T06:34:31;100386.05;;;17.06;81.42
62926;BME280;55732;52.248;-0.844;2022-09-12T06:36:58;100388.52;;;17.12;81.38
62926;BME280;55732;52.248;-0.844;2022-09-12T06:39:23;100387.09;;;17.19;81.22
62926;BME280;55732;52.248;-0.844;2022-09-12T06:41:50;100386.00;;;17.24;81.18
62926;BME280;55732;52.248;-0.844;2022-09-12T06:44:20;100381.69;;;17.31;81.06
62926;BME280;55732;52.248;-0.844;2022-09-12T06:46:46;100376.94;;;17.41;81.02
62926;BME280;55732;52.248;-0.844;2022-09-12T06:49:12;100373.98;;;17.49;80.94
62926;BME280;55732;52.248;-0.844;2022-09-12T06:51:38;100374.02;;;17.59;80.83
62926;BME280;55732;52.248;-0.844;2022-09-12T06:54:05;100376.48;;;17.71;80.46
62926;BME280;55732;52.248;-0.844;2022-09-12T06:56:31;100373.80;;;17.82;80.27
62926;BME280;55732;52.248;-0.844;2022-09-12T06:58:57;100373.93;;;17.94;80.06
62926;BME280;55732;52.248;-0.844;2022-09-12T07:01:29;100369.20;;;18.07;79.81
62926;BME280;55732;52.248;-0.844;2022-09-12T07:03:57;100368.81;;;18.27;79.37
62926;BME280;55732;52.248;-0.844;2022-09-12T07:06:26;100370.58;;;18.47;79.03
62926;BME280;55732;52.248;-0.844;2022-09-12T07:08:59;100369.18;;;18.71;78.60
62926;BME280;55732;52.248;-0.844;2022-09-12T07:11:28;100365.70;;;19.31;77.50
62926;BME280;55732;52.248;-0.844;2022-09-12T07:13:57;100367.63;;;19.76;76.53
62926;BME280;55732;52.248;-0.844;2022-09-12T07:16:23;100365.27;;;20.22;75.19
62926;BME280;55732;52.248;-0.844;2022-09-12T07:18:59;100361.90;;;20.77;73.83
62926;BME280;55732;52.248;-0.844;2022-09-12T07:21:25;100362.70;;;20.79;73.65
62926;BME280;55732;52.248;-0.844;2022-09-12T07:23:51;100365.27;;;20.74;73.32
62926;BME280;55732;52.248;-0.844;2022-09-12T07:26:19;100367.89;;;20.78;73.19
62926;BME280;55732;52.248;-0.844;2022-09-12T07:28:49;100365.73;;;20.83;72.82
62926;BME280;55732;52.248;-0.844;2022-09-12T07:31:16;100360.77;;;20.86;72.66
62926;BME280;55732;52.248;-0.844;2022-09-12T07:33:42;100361.77;;;21.17;72.02
62926;BME280;55732;52.248;-0.844;2022-09-12T07:36:13;100355.27;;;21.90;70.50
62926;BME280;55732;52.248;-0.844;2022-09-12T07:38:39;100351.21;;;22.63;69.09
62926;BME280;55732;52.248;-0.844;2022-09-12T07:43:37;100356.44;;;24.24;65.47
62926;BME280;55732;52.248;-0.844;2022-09-12T07:46:02;100354.77;;;24.85;63.83
62926;BME280;55732;52.248;-0.844;2022-09-12T07:48:28;100353.20;;;25.97;61.51
62926;BME280;55732;52.248;-0.844;2022-09-12T07:51:02;100350.82;;;26.84;59.79
62926;BME280;55732;52.248;-0.844;2022-09-12T07:53:33;100353.30;;;27.48;57.44
62926;BME280;55732;52.248;-0.844;2022-09-12T07:55:59;100353.56;;;27.85;56.44
62926;BME280;55732;52.248;-0.844;2022-09-12T07:58:27;100352.05;;;28.37;54.98
62926;BME280;55732;52.248;-0.844;2022-09-12T08:00:53;100350.67;;;28.70;53.89
62926;BME280;55732;52.248;-0.844;2022-09-12T08:03:19;100351.67;;;28.85;53.27
62926;BME280;55732;52.248;-0.844;2022-09-12T08:05:44;100347.91;;;29.09;52.39
62926;BME280;55732;52.248;-0.844;2022-09-12T08:08:10;100344.20;;;29.47;51.53
62926;BME280;55732;52.248;-0.844;2022-09-12T08:10:36;100347.89;;;29.74;50.45
62926;BME280;55732;52.248;-0.844;2022-09-12T08:13:01;100346.34;;;29.84;49.84
62926;BME280;55732;52.248;-0.844;2022-09-12T08:15:27;100338.77;;;29.08;50.69
62926;BME280;55732;52.248;-0.844;2022-09-12T08:17:53;100338.60;;;28.05;51.80
62926;BME280;55732;52.248;-0.844;2022-09-12T08:20:18;100336.08;;;27.20;53.47
62926;BME280;55732;52.248;-0.844;2022-09-12T08:22:44;100330.65;;;26.60;54.44
62926;BME280;55732;52.248;-0.844;2022-09-12T08:25:10;100326.71;;;26.06;55.16
62926;BME280;55732;52.248;-0.844;2022-09-12T08:27:35;100326.90;;;25.64;56.30
62926;BME280;55732;52.248;-0.844;2022-09-12T08:30:02;100330.05;;;25.25;56.60
62926;BME280;55732;52.248;-0.844;2022-09-12T08:32:28;100334.46;;;24.90;57.40
62926;BME280;55732;52.248;-0.844;2022-09-12T08:34:53;100329.80;;;24.67;57.96
62926;BME280;55732;52.248;-0.844;2022-09-12T08:37:18;100326.76;;;24.36;58.83
62926;BME280;55732;52.248;-0.844;2022-09-12T08:39:44;100335.45;;;24.00;59.61
62926;BME280;55732;52.248;-0.844;2022-09-12T08:42:16;100343.46;;;23.77;60.21
62926;BME280;55732;52.248;-0.844;2022-09-12T08:45:00;100347.35;;;23.96;60.17
62926;BME280;55732;52.248;-0.844;2022-09-12T08:47:31;100351.81;;;24.81;58.86
62926;BME280;55732;52.248;-0.844;2022-09-12T08:52:59;100354.23;;;26.66;55.48
62926;BME280;55732;52.248;-0.844;2022-09-12T08:55:49;100356.27;;;27.42;53.82
62926;BME280;55732;52.248;-0.844;2022-09-12T08:58:21;100355.25;;;27.00;54.05
62926;BME280;55732;52.248;-0.844;2022-09-12T09:14:35;100345.39;;;29.09;50.38
62926;BME280;55732;52.248;-0.844;2022-09-12T09:17:37;100339.67;;;29.56;48.93
62926;BME280;55732;52.248;-0.844;2022-09-12T09:23:05;100326.29;;;32.33;44.66
62926;BME280;55732;52.248;-0.844;2022-09-12T09:25:39;100329.49;;;33.32;42.99
62926;BME280;55732;52.248;-0.844;2022-09-12T09:28:15;100327.81;;;34.38;40.60
62926;BME280;55732;52.248;-0.844;2022-09-12T09:30:43;100321.49;;;35.28;39.46
62926;BME280;55732;52.248;-0.844;2022-09-12T09:33:17;100322.66;;;35.97;38.25
62926;BME280;55732;52.248;-0.844;2022-09-12T09:35:45;100315.17;;;36.02;37.29
62926;BME280;55732;52.248;-0.844;2022-09-12T09:44:00;100308.35;;;33.69;39.37
62926;BME280;55732;52.248;-0.844;2022-09-12T09:46:26;100305.91;;;32.84;40.53
62926;BME280;55732;52.248;-0.844;2022-09-12T09:48:53;100306.55;;;32.67;40.62
62926;BME280;55732;52.248;-0.844;2022-09-12T09:51:27;100307.42;;;32.24;40.88
62926;BME280;55732;52.248;-0.844;2022-09-12T09:54:02;100312.84;;;31.44;41.89
62926;BME280;55732;52.248;-0.844;2022-09-12T09:56:37;100313.98;;;31.02;42.45
62926;BME280;55732;52.248;-0.844;2022-09-12T09:59:08;100309.64;;;30.87;42.76
62926;BME280;55732;52.248;-0.844;2022-09-12T10:01:36;100306.26;;;30.50;43.75
62926;BME280;55732;52.248;-0.844;2022-09-12T10:04:03;100311.84;;;30.13;44.36
62926;BME280;55732;52.248;-0.844;2022-09-12T10:06:30;100315.10;;;29.46;45.35
62926;BME280;55732;52.248;-0.844;2022-09-12T10:11:39;100304.90;;;28.27;47.48
62926;BME280;55732;52.248;-0.844;2022-09-12T10:14:43;100300.77;;;27.73;48.48
62926;BME280;55732;52.248;-0.844;2022-09-12T10:17:23;100300.36;;;27.14;49.48
62926;BME280;55732;52.248;-0.844;2022-09-12T10:19:49;100302.77;;;26.71;50.57
62926;BME280;55732;52.248;-0.844;2022-09-12T10:22:17;100307.77;;;26.39;51.09
62926;BME280;55732;52.248;-0.844;2022-09-12T10:24:48;100309.64;;;26.11;52.19
62926;BME280;55732;52.248;-0.844;2022-09-12T10:27:21;100310.89;;;25.82;52.56
62926;BME280;55732;52.248;-0.844;2022-09-12T10:29:52;100314.25;;;25.59;53.24
62926;BME280;55732;52.248;-0.844;2022-09-12T10:32:33;100316.07;;;25.50;53.50
62926;BME280;55732;52.248;-0.844;2022-09-12T10:35:28;100313.05;;;25.42;53.68
62926;BME280;55732;52.248;-0.844;2022-09-12T10:38:05;100311.93;;;25.32;54.06
62926;BME280;55732;52.248;-0.844;2022-09-12T10:40:38;100309.88;;;25.38;54.24
62926;BME280;55732;52.248;-0.844;2022-09-12T10:43:29;100308.70;;;25.29;54.43
62926;BME280;55732;52.248;-0.844;2022-09-12T10:48:48;100319.14;;;25.10;55.97
62926;BME280;55732;52.248;-0.844;2022-09-12T10:51:34;100322.80;;;24.95;56.29
62926;BME280;55732;52.248;-0.844;2022-09-12T10:54:01;100319.29;;;24.66;56.96
62926;BME280;55732;52.248;-0.844;2022-09-12T11:00:08;100321.98;;;24.23;58.43
62926;BME280;55732;52.248;-0.844;2022-09-12T11:02:57;100326.02;;;24.04;59.10
62926;BME280;55732;52.248;-0.844;2022-09-12T11:05:54;100322.56;;;23.90;59.59
62926;BME280;55732;52.248;-0.844;2022-09-12T11:08:46;100320.95;;;23.72;60.43
62926;BME280;55732;52.248;-0.844;2022-09-12T11:11:18;100318.73;;;23.58;61.42
62926;BME280;55732;52.248;-0.844;2022-09-12T11:14:21;100317.81;;;23.49;61.96
62926;BME280;55732;52.248;-0.844;2022-09-12T11:17:00;100322.91;;;23.29;62.40
62926;BME280;55732;52.248;-0.844;2022-09-12T11:25:26;100323.55;;;22.87;65.45
62926;BME280;55732;52.248;-0.844;2022-09-12T11:28:22;100324.95;;;22.71;66.32
62926;BME280;55732;52.248;-0.844;2022-09-12T11:33:40;100325.70;;;22.41;67.93
62926;BME280;55732;52.248;-0.844;2022-09-12T11:36:38;100322.29;;;22.34;68.51
62926;BME280;55732;52.248;-0.844;2022-09-12T11:39:07;100314.98;;;22.30;68.86
62926;BME280;55732;52.248;-0.844;2022-09-12T11:41:40;100313.41;;;22.32;69.19
62926;BME280;55732;52.248;-0.844;2022-09-12T11:46:42;100322.83;;;22.38;69.39
62926;BME280;55732;52.248;-0.844;2022-09-12T11:51:52;100324.75;;;22.48;69.79
62926;BME280;55732;52.248;-0.844;2022-09-12T11:57:00;100325.92;;;22.63;69.54
62926;BME280;55732;52.248;-0.844;2022-09-12T11:59:45;100326.08;;;22.63;69.40
62926;BME280;55732;52.248;-0.844;2022-09-12T12:02:19;100327.25;;;22.62;69.70
62926;BME280;55732;52.248;-0.844;2022-09-12T12:05:23;100333.47;;;22.59;69.44
62926;BME280;55732;52.248;-0.844;2022-09-12T12:07:58;100334.23;;;22.58;69.49
62926;BME280;55732;52.248;-0.844;2022-09-12T12:13:07;100323.45;;;22.72;69.95
62926;BME280;55732;52.248;-0.844;2022-09-12T12:15:35;100314.80;;;22.80;70.23
62926;BME280;55732;52.248;-0.844;2022-09-12T12:20:40;100311.02;;;22.89;69.96
62926;BME280;55732;52.248;-0.844;2022-09-12T12:23:06;100308.50;;;23.01;70.14
62926;BME280;55732;52.248;-0.844;2022-09-12T12:25:40;100305.23;;;23.24;69.97
62926;BME280;55732;52.248;-0.844;2022-09-12T12:31:07;100307.65;;;23.69;68.54
62926;BME280;55732;52.248;-0.844;2022-09-12T12:36:04;100302.91;;;23.99;67.69
62926;BME280;55732;52.248;-0.844;2022-09-12T12:38:34;100296.23;;;24.20;66.96
62926;BME280;55732;52.248;-0.844;2022-09-12T12:43:40;100296.66;;;24.45;66.40
62926;BME280;55732;52.248;-0.844;2022-09-12T12:46:09;100299.55;;;24.39;65.76
62926;BME280;55732;52.248;-0.844;2022-09-12T12:57:17;100301.27;;;24.17;66.11
62926;BME280;55732;52.248;-0.844;2022-09-12T12:59:57;100302.24;;;24.10;66.11
62926;BME280;55732;52.248;-0.844;2022-09-12T13:04:54;100292.75;;;24.30;66.06
62926;BME280;55732;52.248;-0.844;2022-09-12T13:07:30;100294.54;;;24.59;65.75
62926;BME280;55732;52.248;-0.844;2022-09-12T13:09:58;100296.14;;;24.81;65.26
62926;BME280;55732;52.248;-0.844;2022-09-12T13:12:37;100290.13;;;24.97;64.47
62926;BME280;55732;52.248;-0.844;2022-09-12T13:15:47;100290.55;;;25.01;63.90
62926;BME280;55732;52.248;-0.844;2022-09-12T13:18:24;100286.86;;;25.00;63.55
62926;BME280;55732;52.248;-0.844;2022-09-12T13:21:11;100286.36;;;24.96;63.61
62926;BME280;55732;52.248;-0.844;2022-09-12T13:23:38;100282.28;;;25.03;63.78
62926;BME280;55732;52.248;-0.844;2022-09-12T13:26:32;100278.67;;;25.09;63.68
62926;BME280;55732;52.248;-0.844;2022-09-12T13:29:13;100273.66;;;25.14;62.99
62926;BME280;55732;52.248;-0.844;2022-09-12T13:31:40;100268.08;;;25.17;62.56
62926;BME280;55732;52.248;-0.844;2022-09-12T13:34:08;100270.52;;;25.31;62.27
62926;BME280;55732;52.248;-0.844;2022-09-12T13:39:26;100261.34;;;25.39;62.34
62926;BME280;55732;52.248;-0.844;2022-09-12T13:42:06;100260.22;;;25.32;62.27
62926;BME280;55732;52.248;-0.844;2022-09-12T13:45:10;100264.80;;;25.28;62.24
62926;BME280;55732;52.248;-0.844;2022-09-12T13:47:43;100260.64;;;25.20;62.47
62926;BME280;55732;52.248;-0.844;2022-09-12T13:50:25;100262.11;;;25.11;62.94
62926;BME280;55732;52.248;-0.844;2022-09-12T13:52:57;100258.73;;;25.05;62.97
62926;BME280;55732;52.248;-0.844;2022-09-12T13:55:34;100254.80;;;25.00;62.81
62926;BME280;55732;52.248;-0.844;2022-09-12T13:58:05;100252.20;;;24.95;63.03
62926;BME280;55732;52.248;-0.844;2022-09-12T14:00:32;100248.66;;;24.91;62.61
62926;BME280;55732;52.248;-0.844;2022-09-12T14:02:59;100245.20;;;24.87;62.70
62926;BME280;55732;52.248;-0.844;2022-09-12T14:05:52;100243.98;;;24.80;63.01
62926;BME280;55732;52.248;-0.844;2022-09-12T14:08:20;100236.70;;;24.76;63.06
62926;BME280;55732;52.248;-0.844;2022-09-12T14:10:48;100235.23;;;24.71;63.17
62926;BME280;55732;52.248;-0.844;2022-09-12T14:13:19;100240.37;;;24.64;63.49
62926;BME280;55732;52.248;-0.844;2022-09-12T14:15:48;100235.08;;;24.57;63.58
62926;BME280;55732;52.248;-0.844;2022-09-12T14:18:28;100237.00;;;24.61;63.87
62926;BME280;55732;52.248;-0.844;2022-09-12T14:21:07;100230.27;;;24.78;63.50
62926;BME280;55732;52.248;-0.844;2022-09-12T14:23:38;100231.03;;;24.94;63.41
62926;BME280;55732;52.248;-0.844;2022-09-12T14:26:08;100225.56;;;24.92;63.03
62926;BME280;55732;52.248;-0.844;2022-09-12T14:28:35;100231.18;;;25.02;63.20
62926;BME280;55732;52.248;-0.844;2022-09-12T14:31:04;100229.30;;;25.03;63.13
62926;BME280;55732;52.248;-0.844;2022-09-12T14:33:46;100228.47;;;24.97;63.04
62926;BME280;55732;52.248;-0.844;2022-09-12T14:36:22;100228.73;;;24.90;62.99
62926;BME280;55732;52.248;-0.844;2022-09-12T14:38:51;100225.23;;;24.83;63.19
62926;BME280;55732;52.248;-0.844;2022-09-12T14:41:25;100223.59;;;24.80;63.39
62926;BME280;55732;52.248;-0.844;2022-09-12T14:43:55;100219.38;;;24.79;63.08
62926;BME280;55732;52.248;-0.844;2022-09-12T14:46:37;100221.39;;;24.76;63.35
62926;BME280;55732;52.248;-0.844;2022-09-12T14:59:52;100205.66;;;24.74;63.40
62926;BME280;55732;52.248;-0.844;2022-09-12T15:10:01;100197.17;;;24.36;63.42
62926;BME280;55732;52.248;-0.844;2022-09-12T15:12:27;100194.08;;;24.31;63.85
62926;BME280;55732;52.248;-0.844;2022-09-12T15:15:14;100194.48;;;24.27;63.87
62926;BME280;55732;52.248;-0.844;2022-09-12T15:17:40;100193.73;;;24.26;63.95
62926;BME280;55732;52.248;-0.844;2022-09-12T15:20:06;100189.77;;;24.28;64.21